sensor_id;sensor_type;location;lat;lon;timestamp;pressure;altitude;pressure_sealevel;temperature;humidity
77454;BME280;66538;53.150;18.160;2023-10-31T00:01:35;99825.41;;;10.62;100.00
77454;BME280;66538;53.150;18.160;2023-10-31T00:04:01;99821.83;;;10.65;100.00
77454;BME280;66538;53.150;18.160;2023-10-31T00:06:28;99820.58;;;10.69;100.00
77454;BME280;66538;53.150;18.160;2023-10-31T00:08:55;99824.83;;;10.73;100.00
77454;BME280;66538;53.150;18.160;2023-10-31T00:11:22;99826.04;;;10.76;100.00
77454;BME280;66538;53.150;18.160;2023-10-31T00:13:49;99816.20;;;10.81;100.00
77454;BME280;66538;53.150;18.160;2023-10-31T00:16:16;99806.38;;;10.84;100.00
77454;BME280;66538;53.150;18.160;2023-10-31T00:18:42;99791.80;;;10.86;100.00
77454;BME280;66538;53.150;18.160;2023-10-31T00:21:09;99794.86;;;10.92;100.00
77454;BME280;66538;53.150;18.160;2023-10-31T00:23:43;99788.98;;;10.97;100.00
77454;BME280;66538;53.150;18.160;2023-10-31T00:26:09;99786.70;;;11.00;100.00
77454;BME280;66538;53.150;18.160;2023-10-31T00:28:36;99784.42;;;11.03;100.00
77454;BME280;66538;53.150;18.160;2023-10-31T00:31:03;99776.04;;;11.05;100.00
77454;BME280;66538;53.150;18.160;2023-10-31T00:33:31;99773.86;;;11.09;100.00
77454;BME280;66538;53.150;18.160;2023-10-31T00:35:58;99767.20;;;11.11;100.00
77454;BME280;66538;53.150;18.160;2023-10-31T00:38:24;99767.17;;;11.14;100.00
77454;BME280;66538;53.150;18.160;2023-10-31T00:40:51;99763.77;;;11.15;100.00
77454;BME280;66538;53.150;18.160;2023-10-31T00:43:17;99757.13;;;11.17;100.00
77454;BME280;66538;53.150;18.160;2023-10-31T00:45:44;99755.54;;;11.17;100.00
77454;BME280;66538;53.150;18.160;2023-10-31T00:48:11;99751.30;;;11.21;100.00
77454;BME280;66538;53.150;18.160;2023-10-31T00:50:37;99740.77;;;11.21;100.00
77454;BME280;66538;53.150;18.160;2023-10-31T00:53:04;99734.59;;;11.23;100.00
77454;BME280;66538;53.150;18.160;2023-10-31T00:55:30;99729.71;;;11.24;100.00
77454;BME280;66538;53.150;18.160;2023-10-31T00:57:57;99726.11;;;11.26;100.00
77454;BME280;66538;53.150;18.160;2023-10-31T01:00:24;99723.08;;;11.29;100.00
77454;BME280;66538;53.150;18.160;2023-10-31T01:02:50;99711.89;;;11.31;100.00
77454;BME280;66538;53.150;18.160;2023-10-31T01:05:17;99706.31;;;11.33;100.00
77454;BME280;66538;53.150;18.160;2023-10-31T01:07:44;99702.34;;;11.37;100.00
77454;BME280;66538;53.150;18.160;2023-10-31T01:10:11;99698.45;;;11.39;100.00
77454;BME280;66538;53.150;18.160;2023-10-31T01:12:38;99697.88;;;11.40;100.00
77454;BME280;66538;53.150;18.160;2023-10-31T01:15:04;99693.95;;;11.41;100.00
77454;BME280;66538;53.150;18.160;2023-10-31T01:17:31;99692.40;;;11.43;100.00
77454;BME280;66538;53.150;18.160;2023-10-31T01:19:58;99682.97;;;11.42;100.00
77454;BME280;66538;53.150;18.160;2023-10-31T01:22:25;99676.81;;;11.42;100.00
77454;BME280;66538;53.150;18.160;2023-10-31T01:28:14;99658.60;;;11.42;100.00
77454;BME280;66538;53.150;18.160;2023-10-31T01:30:41;99649.83;;;11.44;100.00
77454;BME280;66538;53.150;18.160;2023-10-31T01:33:07;99634.86;;;11.44;100.00
77454;BME280;66538;53.150;18.160;2023-10-31T01:35:34;99626.95;;;11.46;100.00
77454;BME280;66538;53.150;18.160;2023-10-31T01:38:01;99619.31;;;11.48;100.00
77454;BME280;66538;53.150;18.160;2023-10-31T01:40:27;99608.61;;;11.49;100.00
77454;BME280;66538;53.150;18.160;2023-10-31T01:42:55;99594.46;;;11.50;100.00
77454;BME280;66538;53.150;18.160;2023-10-31T01:45:22;99577.38;;;11.52;100.00
77454;BME280;66538;53.150;18.160;2023-10-31T01:47:49;99576.66;;;11.57;100.00
77454;BME280;66538;53.150;18.160;2023-10-31T01:50:16;99571.41;;;11.60;100.00
77454;BME280;66538;53.150;18.160;2023-10-31T01:52:44;99561.79;;;11.63;100.00
77454;BME280;66538;53.150;18.160;2023-10-31T01:55:11;99557.04;;;11.67;100.00
77454;BME280;66538;53.150;18.160;2023-10-31T01:57:38;99550.33;;;11.71;100.00
77454;BME280;66538;53.150;18.160;2023-10-31T02:00:05;99540.69;;;11.74;100.00
77454;BME280;66538;53.150;18.160;2023-10-31T02:02:41;99534.18;;;11.78;100.00
77454;BME280;66538;53.150;18.160;2023-10-31T02:05:09;99525.23;;;11.75;100.00
77454;BME280;66538;53.150;18.160;2023-10-31T02:07:36;99522.20;;;11.76;100.00
77454;BME280;66538;53.150;18.160;2023-10-31T02:10:03;99513.23;;;11.78;100.00
77454;BME280;66538;53.150;18.160;2023-10-31T02:12:34;99508.23;;;11.79;100.00
77454;BME280;66538;53.150;18.160;2023-10-31T02:15:02;99507.82;;;11.87;100.00
77454;BME280;66538;53.150;18.160;2023-10-31T02:17:29;99504.85;;;11.91;100.00
77454;BME280;66538;53.150;18.160;2023-10-31T02:19:56;99491.52;;;11.94;100.00
77454;BME280;66538;53.150;18.160;2023-10-31T02:22:23;99488.98;;;11.98;100.00
77454;BME280;66538;53.150;18.160;2023-10-31T02:24:49;99490.70;;;12.01;100.00
77454;BME280;66538;53.150;18.160;2023-10-31T02:27:16;99485.04;;;12.01;100.00
77454;BME280;66538;53.150;18.160;2023-10-31T02:29:43;99481.27;;;12.03;100.00
77454;BME280;66538;53.150;18.160;2023-10-31T02:32:11;99477.11;;;12.07;100.00
77454;BME280;66538;53.150;18.160;2023-10-31T02:34:38;99474.45;;;12.09;100.00
77454;BME280;66538;53.150;18.160;2023-10-31T02:37:04;99468.25;;;12.11;100.00
77454;BME280;66538;53.150;18.160;2023-10-31T02:39:32;99468.46;;;12.15;100.00
77454;BME280;66538;53.150;18.160;2023-10-31T02:41:59;99463.27;;;12.20;100.00
77454;BME280;66538;53.150;18.160;2023-10-31T02:44:26;99459.89;;;12.24;100.00
77454;BME280;66538;53.150;18.160;2023-10-31T02:46:52;99458.76;;;12.25;100.00
77454;BME280;66538;53.150;18.160;2023-10-31T02:49:19;99451.50;;;12.28;100.00
77454;BME280;66538;53.150;18.160;2023-10-31T02:51:46;99450.24;;;12.31;100.00
77454;BME280;66538;53.150;18.160;2023-10-31T02:54:13;99442.02;;;12.33;100.00
77454;BME280;66538;53.150;18.160;2023-10-31T02:56:40;99435.84;;;12.36;100.00
77454;BME280;66538;53.150;18.160;2023-10-31T02:59:06;99425.77;;;12.39;100.00
77454;BME280;66538;53.150;18.160;2023-10-31T03:01:34;99415.42;;;12.39;100.00
77454;BME280;66538;53.150;18.160;2023-10-31T03:04:01;99410.72;;;12.39;100.00
77454;BME280;66538;53.150;18.160;2023-10-31T03:06:28;99406.20;;;12.39;100.00
77454;BME280;66538;53.150;18.160;2023-10-31T03:08:54;99397.48;;;12.39;100.00
77454;BME280;66538;53.150;18.160;2023-10-31T03:11:25;99403.62;;;12.41;100.00
77454;BME280;66538;53.150;18.160;2023-10-31T03:13:52;99403.25;;;12.42;100.00
77454;BME280;66538;53.150;18.160;2023-10-31T03:16:20;99402.47;;;12.43;100.00
77454;BME280;66538;53.150;18.160;2023-10-31T03:18:46;99396.98;;;12.45;100.00
77454;BME280;66538;53.150;18.160;2023-10-31T03:21:13;99394.82;;;12.43;100.00
77454;BME280;66538;53.150;18.160;2023-10-31T03:23:42;99380.00;;;12.44;100.00
77454;BME280;66538;53.150;18.160;2023-10-31T03:26:09;99373.98;;;12.45;100.00
77454;BME280;66538;53.150;18.160;2023-10-31T03:28:36;99366.41;;;12.46;100.00
77454;BME280;66538;53.150;18.160;2023-10-31T03:31:03;99354.42;;;12.46;100.00
77454;BME280;66538;53.150;18.160;2023-10-31T03:33:31;99348.65;;;12.48;100.00
77454;BME280;66538;53.150;18.160;2023-10-31T03:35:58;99341.85;;;12.48;100.00
77454;BME280;66538;53.150;18.160;2023-10-31T03:38:24;99341.32;;;12.51;100.00
77454;BME280;66538;53.150;18.160;2023-10-31T03:40:51;99340.18;;;12.53;100.00
77454;BME280;66538;53.150;18.160;2023-10-31T03:43:19;99340.18;;;12.55;100.00
77454;BME280;66538;53.150;18.160;2023-10-31T03:45:46;99336.38;;;12.55;100.00
77454;BME280;66538;53.150;18.160;2023-10-31T03:48:16;99330.69;;;12.58;100.00
77454;BME280;66538;53.150;18.160;2023-10-31T03:50:43;99330.92;;;12.61;100.00
77454;BME280;66538;53.150;18.160;2023-10-31T03:53:10;99326.29;;;12.63;100.00
77454;BME280;66538;53.150;18.160;2023-10-31T03:55:37;99322.09;;;12.66;100.00
77454;BME280;66538;53.150;18.160;2023-10-31T03:58:04;99318.80;;;12.69;100.00
77454;BME280;66538;53.150;18.160;2023-10-31T04:00:30;99313.43;;;12.73;100.00
77454;BME280;66538;53.150;18.160;2023-10-31T04:02:57;99303.08;;;12.74;100.00
77454;BME280;66538;53.150;18.160;2023-10-31T04:05:24;99298.06;;;12.77;100.00
77454;BME280;66538;53.150;18.160;2023-10-31T04:07:51;99288.94;;;12.79;100.00
77454;BME280;66538;53.150;18.160;2023-10-31T04:10:18;99284.69;;;12.81;100.00
77454;BME280;66538;53.150;18.160;2023-10-31T04:12:45;99275.08;;;12.82;100.00
77454;BME280;66538;53.150;18.160;2023-10-31T04:15:12;99270.33;;;12.82;100.00
77454;BME280;66538;53.150;18.160;2023-10-31T04:17:38;99265.72;;;12.84;100.00
77454;BME280;66538;53.150;18.160;2023-10-31T04:20:06;99262.84;;;12.85;100.00
77454;BME280;66538;53.150;18.160;2023-10-31T04:22:33;99253.98;;;12.86;100.00
77454;BME280;66538;53.150;18.160;2023-10-31T04:24:59;99254.58;;;12.86;100.00
77454;BME280;66538;53.150;18.160;2023-10-31T04:27:26;99252.39;;;12.88;100.00
77454;BME280;66538;53.150;18.160;2023-10-31T04:29:52;99244.98;;;12.90;100.00
77454;BME280;66538;53.150;18.160;2023-10-31T04:32:19;99243.66;;;12.91;100.00
77454;BME280;66538;53.150;18.160;2023-10-31T04:34:45;99244.61;;;12.93;100.00
77454;BME280;66538;53.150;18.160;2023-10-31T04:37:12;99241.29;;;12.93;100.00
77454;BME280;66538;53.150;18.160;2023-10-31T04:39:39;99242.34;;;12.96;100.00
77454;BME280;66538;53.150;18.160;2023-10-31T04:42:05;99247.00;;;12.97;100.00
77454;BME280;66538;53.150;18.160;2023-10-31T04:44:32;99239.86;;;12.99;100.00
77454;BME280;66538;53.150;18.160;2023-10-31T04:46:59;99236.92;;;12.99;100.00
77454;BME280;66538;53.150;18.160;2023-10-31T04:49:26;99236.35;;;13.00;100.00
77454;BME280;66538;53.150;18.160;2023-10-31T04:51:52;99229.67;;;13.01;100.00
77454;BME280;66538;53.150;18.160;2023-10-31T04:54:19;99228.98;;;13.01;100.00
77454;BME280;66538;53.150;18.160;2023-10-31T04:56:47;99228.27;;;13.01;100.00
77454;BME280;66538;53.150;18.160;2023-10-31T04:59:14;99221.77;;;13.02;100.00
77454;BME280;66538;53.150;18.160;2023-10-31T05:01:40;99217.54;;;13.01;100.00
77454;BME280;66538;53.150;18.160;2023-10-31T05:04:07;99211.92;;;13.01;100.00
77454;BME280;66538;53.150;18.160;2023-10-31T05:06:33;99212.67;;;13.02;100.00
77454;BME280;66538;53.150;18.160;2023-10-31T05:09:00;99207.70;;;13.02;100.00
77454;BME280;66538;53.150;18.160;2023-10-31T05:11:27;99206.45;;;13.02;100.00
77454;BME280;66538;53.150;18.160;2023-10-31T05:13:53;99201.88;;;13.02;100.00
77454;BME280;66538;53.150;18.160;2023-10-31T05:16:20;99195.98;;;13.01;100.00
77454;BME280;66538;53.150;18.160;2023-10-31T05:18:47;99191.83;;;13.01;100.00
77454;BME280;66538;53.150;18.160;2023-10-31T05:21:19;99192.98;;;13.00;100.00
77454;BME280;66538;53.150;18.160;2023-10-31T05:23:47;99194.01;;;12.99;100.00
77454;BME280;66538;53.150;18.160;2023-10-31T05:26:13;99186.73;;;12.97;100.00
77454;BME280;66538;53.150;18.160;2023-10-31T05:28:40;99181.23;;;12.97;100.00
77454;BME280;66538;53.150;18.160;2023-10-31T05:31:06;99181.08;;;12.96;100.00
77454;BME280;66538;53.150;18.160;2023-10-31T05:33:33;99172.00;;;12.95;100.00
77454;BME280;66538;53.150;18.160;2023-10-31T05:36:00;99163.31;;;12.94;100.00
77454;BME280;66538;53.150;18.160;2023-10-31T05:38:26;99159.52;;;12.94;100.00
77454;BME280;66538;53.150;18.160;2023-10-31T05:40:53;99151.56;;;12.92;100.00
77454;BME280;66538;53.150;18.160;2023-10-31T05:43:19;99145.09;;;12.91;100.00
77454;BME280;66538;53.150;18.160;2023-10-31T05:45:46;99146.08;;;12.91;100.00
77454;BME280;66538;53.150;18.160;2023-10-31T05:48:12;99150.89;;;12.91;100.00
77454;BME280;66538;53.150;18.160;2023-10-31T05:50:42;99154.96;;;12.91;100.00
77454;BME280;66538;53.150;18.160;2023-10-31T05:53:09;99148.80;;;12.91;100.00
77454;BME280;66538;53.150;18.160;2023-10-31T05:55:38;99147.10;;;12.91;100.00
77454;BME280;66538;53.150;18.160;2023-10-31T05:58:05;99146.81;;;12.94;100.00
77454;BME280;66538;53.150;18.160;2023-10-31T06:00:32;99145.98;;;12.96;100.00
77454;BME280;66538;53.150;18.160;2023-10-31T06:02:59;99144.48;;;12.99;100.00
77454;BME280;66538;53.150;18.160;2023-10-31T06:05:25;99137.17;;;13.02;100.00
77454;BME280;66538;53.150;18.160;2023-10-31T06:07:52;99140.64;;;13.06;100.00
77454;BME280;66538;53.150;18.160;2023-10-31T06:10:18;99134.77;;;13.11;100.00
77454;BME280;66538;53.150;18.160;2023-10-31T06:12:45;99142.94;;;13.16;100.00
77454;BME280;66538;53.150;18.160;2023-10-31T06:15:12;99143.20;;;13.21;100.00
77454;BME280;66538;53.150;18.160;2023-10-31T06:17:38;99142.02;;;13.25;100.00
77454;BME280;66538;53.150;18.160;2023-10-31T06:20:09;99140.34;;;13.28;100.00
77454;BME280;66538;53.150;18.160;2023-10-31T06:22:35;99136.17;;;13.32;100.00
77454;BME280;66538;53.150;18.160;2023-10-31T06:25:02;99137.05;;;13.37;100.00
77454;BME280;66538;53.150;18.160;2023-10-31T06:27:29;99138.75;;;13.41;100.00
77454;BME280;66538;53.150;18.160;2023-10-31T06:29:55;99139.56;;;13.46;100.00
77454;BME280;66538;53.150;18.160;2023-10-31T06:32:22;99133.81;;;13.48;100.00
77454;BME280;66538;53.150;18.160;2023-10-31T06:34:49;99136.50;;;13.53;100.00
77454;BME280;66538;53.150;18.160;2023-10-31T06:37:15;99136.80;;;13.56;100.00
77454;BME280;66538;53.150;18.160;2023-10-31T06:39:42;99140.15;;;13.60;100.00
77454;BME280;66538;53.150;18.160;2023-10-31T06:42:09;99137.59;;;13.62;100.00
77454;BME280;66538;53.150;18.160;2023-10-31T06:44:35;99135.97;;;13.66;100.00
77454;BME280;66538;53.150;18.160;2023-10-31T06:47:02;99129.77;;;13.68;100.00
77454;BME280;66538;53.150;18.160;2023-10-31T06:49:28;99129.50;;;13.71;100.00
77454;BME280;66538;53.150;18.160;2023-10-31T06:51:55;99127.20;;;13.76;100.00
77454;BME280;66538;53.150;18.160;2023-10-31T06:54:22;99126.32;;;13.79;100.00
77454;BME280;66538;53.150;18.160;2023-10-31T06:56:48;99126.03;;;13.84;100.00
77454;BME280;66538;53.150;18.160;2023-10-31T06:59:15;99124.41;;;13.88;100.00
77454;BME280;66538;53.150;18.160;2023-10-31T07:01:42;99118.90;;;13.92;100.00
77454;BME280;66538;53.150;18.160;2023-10-31T07:04:09;99111.59;;;13.97;100.00
77454;BME280;66538;53.150;18.160;2023-10-31T07:06:36;99110.55;;;14.00;100.00
77454;BME280;66538;53.150;18.160;2023-10-31T07:09:02;99109.73;;;14.03;100.00
77454;BME280;66538;53.150;18.160;2023-10-31T07:11:31;99106.54;;;14.05;100.00
77454;BME280;66538;53.150;18.160;2023-10-31T07:14:01;99101.71;;;14.05;100.00
77454;BME280;66538;53.150;18.160;2023-10-31T07:16:28;99104.41;;;14.10;100.00
77454;BME280;66538;53.150;18.160;2023-10-31T07:18:55;99101.59;;;14.16;100.00
77454;BME280;66538;53.150;18.160;2023-10-31T07:21:22;99101.66;;;14.21;100.00
77454;BME280;66538;53.150;18.160;2023-10-31T07:23:48;99104.14;;;14.26;100.00
77454;BME280;66538;53.150;18.160;2023-10-31T07:26:16;99103.09;;;14.31;100.00
77454;BME280;66538;53.150;18.160;2023-10-31T07:28:42;99094.54;;;14.36;100.00
77454;BME280;66538;53.150;18.160;2023-10-31T07:31:09;99085.94;;;14.40;100.00
77454;BME280;66538;53.150;18.160;2023-10-31T07:33:36;99087.90;;;14.44;100.00
77454;BME280;66538;53.150;18.160;2023-10-31T07:36:03;99078.89;;;14.45;100.00
77454;BME280;66538;53.150;18.160;2023-10-31T07:38:30;99073.16;;;14.48;100.00
77454;BME280;66538;53.150;18.160;2023-10-31T07:40:56;99067.50;;;14.52;100.00
77454;BME280;66538;53.150;18.160;2023-10-31T07:43:23;99066.05;;;14.55;100.00
77454;BME280;66538;53.150;18.160;2023-10-31T07:45:50;99068.80;;;14.57;100.00
77454;BME280;66538;53.150;18.160;2023-10-31T07:48:16;99066.44;;;14.59;100.00
77454;BME280;66538;53.150;18.160;2023-10-31T07:50:43;99059.23;;;14.60;100.00
77454;BME280;66538;53.150;18.160;2023-10-31T07:53:09;99062.47;;;14.61;100.00
77454;BME280;66538;53.150;18.160;2023-10-31T07:55:36;99061.99;;;14.61;100.00
77454;BME280;66538;53.150;18.160;2023-10-31T07:58:03;99066.70;;;14.59;100.00
77454;BME280;66538;53.150;18.160;2023-10-31T08:00:29;99061.38;;;14.55;100.00
77454;BME280;66538;53.150;18.160;2023-10-31T08:02:57;99063.12;;;14.53;100.00
77454;BME280;66538;53.150;18.160;2023-10-31T08:05:23;99063.08;;;14.50;100.00
77454;BME280;66538;53.150;18.160;2023-10-31T08:07:50;99063.40;;;14.46;100.00
77454;BME280;66538;53.150;18.160;2023-10-31T08:10:17;99064.88;;;14.42;100.00
77454;BME280;66538;53.150;18.160;2023-10-31T08:12:43;99066.35;;;14.40;100.00
77454;BME280;66538;53.150;18.160;2023-10-31T08:15:10;99067.55;;;14.36;100.00
77454;BME280;66538;53.150;18.160;2023-10-31T08:17:37;99069.42;;;14.32;100.00
77454;BME280;66538;53.150;18.160;2023-10-31T08:20:04;99068.61;;;14.25;100.00
77454;BME280;66538;53.150;18.160;2023-10-31T08:22:31;99067.16;;;14.18;100.00
77454;BME280;66538;53.150;18.160;2023-10-31T08:24:57;99075.45;;;14.11;100.00
77454;BME280;66538;53.150;18.160;2023-10-31T08:27:24;99075.60;;;14.03;100.00
77454;BME280;66538;53.150;18.160;2023-10-31T08:29:50;99081.52;;;13.97;100.00
77454;BME280;66538;53.150;18.160;2023-10-31T08:32:17;99080.11;;;13.89;100.00
77454;BME280;66538;53.150;18.160;2023-10-31T08:34:43;99081.56;;;13.84;100.00
77454;BME280;66538;53.150;18.160;2023-10-31T08:37:10;99082.13;;;13.79;100.00
77454;BME280;66538;53.150;18.160;2023-10-31T08:39:37;99085.90;;;13.74;100.00
77454;BME280;66538;53.150;18.160;2023-10-31T08:42:03;99086.86;;;13.69;100.00
77454;BME280;66538;53.150;18.160;2023-10-31T08:44:30;99086.69;;;13.65;100.00
77454;BME280;66538;53.150;18.160;2023-10-31T08:46:57;99088.60;;;13.62;100.00
77454;BME280;66538;53.150;18.160;2023-10-31T08:49:23;99088.46;;;13.59;100.00
77454;BME280;66538;53.150;18.160;2023-10-31T08:51:50;99089.01;;;13.57;100.00
77454;BME280;66538;53.150;18.160;2023-10-31T08:54:17;99092.47;;;13.56;100.00
77454;BME280;66538;53.150;18.160;2023-10-31T08:56:43;99095.89;;;13.54;100.00
77454;BME280;66538;53.150;18.160;2023-10-31T08:59:10;99094.02;;;13.52;100.00
77454;BME280;66538;53.150;18.160;2023-10-31T09:01:36;99098.84;;;13.50;100.00
77454;BME280;66538;53.150;18.160;2023-10-31T09:04:03;99101.67;;;13.51;100.00
77454;BME280;66538;53.150;18.160;2023-10-31T09:06:30;99108.02;;;13.50;100.00
77454;BME280;66538;53.150;18.160;2023-10-31T09:08:56;99112.64;;;13.50;100.00
77454;BME280;66538;53.150;18.160;2023-10-31T09:11:23;99112.66;;;13.51;100.00
77454;BME280;66538;53.150;18.160;2023-10-31T09:13:49;99110.09;;;13.53;100.00
77454;BME280;66538;53.150;18.160;2023-10-31T09:16:16;99113.02;;;13.58;100.00
77454;BME280;66538;53.150;18.160;2023-10-31T09:18:43;99105.48;;;13.63;100.00
77454;BME280;66538;53.150;18.160;2023-10-31T09:21:10;99105.50;;;13.69;100.00
77454;BME280;66538;53.150;18.160;2023-10-31T09:23:36;99105.23;;;13.78;100.00
77454;BME280;66538;53.150;18.160;2023-10-31T09:26:03;99098.98;;;13.84;100.00
77454;BME280;66538;53.150;18.160;2023-10-31T09:28:30;99100.05;;;13.88;100.00
77454;BME280;66538;53.150;18.160;2023-10-31T09:30:56;99104.90;;;13.93;100.00
77454;BME280;66538;53.150;18.160;2023-10-31T09:33:23;99105.04;;;13.98;100.00
77454;BME280;66538;53.150;18.160;2023-10-31T09:35:50;99107.20;;;14.02;100.00
77454;BME280;66538;53.150;18.160;2023-10-31T09:38:16;99111.05;;;14.06;100.00
77454;BME280;66538;53.150;18.160;2023-10-31T09:40:43;99108.36;;;14.11;100.00
77454;BME280;66538;53.150;18.160;2023-10-31T09:43:10;99105.63;;;14.17;100.00
77454;BME280;66538;53.150;18.160;2023-10-31T09:45:36;99104.91;;;14.22;100.00
77454;BME280;66538;53.150;18.160;2023-10-31T09:48:03;99107.80;;;14.26;100.00
77454;BME280;66538;53.150;18.160;2023-10-31T09:50:30;99126.07;;;14.28;100.00
77454;BME280;66538;53.150;18.160;2023-10-31T09:52:57;99124.45;;;14.29;100.00
77454;BME280;66538;53.150;18.160;2023-10-31T09:55:25;99136.19;;;14.30;100.00
77454;BME280;66538;53.150;18.160;2023-10-31T09:57:52;99141.74;;;14.33;100.00
77454;BME280;66538;53.150;18.160;2023-10-31T10:00:19;99142.64;;;14.33;100.00
77454;BME280;66538;53.150;18.160;2023-10-31T10:02:45;99143.05;;;14.34;100.00
77454;BME280;66538;53.150;18.160;2023-10-31T10:05:14;99147.54;;;14.35;100.00
77454;BME280;66538;53.150;18.160;2023-10-31T10:07:42;99155.51;;;14.35;100.00
77454;BME280;66538;53.150;18.160;2023-10-31T10:10:12;99151.02;;;14.37;100.00
77454;BME280;66538;53.150;18.160;2023-10-31T10:12:43;99152.58;;;14.38;100.00
77454;BME280;66538;53.150;18.160;2023-10-31T10:15:11;99153.25;;;14.42;100.00
77454;BME280;66538;53.150;18.160;2023-10-31T10:17:38;99158.23;;;14.44;100.00
77454;BME280;66538;53.150;18.160;2023-10-31T10:20:06;99160.40;;;14.47;100.00
77454;BME280;66538;53.150;18.160;2023-10-31T10:22:41;99159.00;;;14.51;100.00
77454;BME280;66538;53.150;18.160;2023-10-31T10:25:10;99161.38;;;14.54;100.00
77454;BME280;66538;53.150;18.160;2023-10-31T10:27:38;99157.98;;;14.57;100.00
77454;BME280;66538;53.150;18.160;2023-10-31T10:30:05;99157.64;;;14.56;100.00
77454;BME280;66538;53.150;18.160;2023-10-31T10:32:32;99163.06;;;14.55;100.00
77454;BME280;66538;53.150;18.160;2023-10-31T10:34:58;99172.23;;;14.52;100.00
77454;BME280;66538;53.150;18.160;2023-10-31T10:37:26;99173.22;;;14.48;100.00
77454;BME280;66538;53.150;18.160;2023-10-31T10:39:53;99176.67;;;14.46;100.00
77454;BME280;66538;53.150;18.160;2023-10-31T10:42:46;99173.30;;;14.46;100.00
77454;BME280;66538;53.150;18.160;2023-10-31T10:45:15;99185.84;;;14.45;100.00
77454;BME280;66538;53.150;18.160;2023-10-31T10:47:47;99195.40;;;14.42;100.00
77454;BME280;66538;53.150;18.160;2023-10-31T10:50:14;99203.52;;;14.41;100.00
77454;BME280;66538;53.150;18.160;2023-10-31T10:52:49;99211.46;;;14.38;100.00
77454;BME280;66538;53.150;18.160;2023-10-31T10:55:25;99213.51;;;14.36;100.00
77454;BME280;66538;53.150;18.160;2023-10-31T10:58:00;99206.12;;;14.35;100.00
77454;BME280;66538;53.150;18.160;2023-10-31T11:00:28;99210.66;;;14.34;100.00
77454;BME280;66538;53.150;18.160;2023-10-31T11:02:56;99209.60;;;14.32;100.00
77454;BME280;66538;53.150;18.160;2023-10-31T11:05:24;99209.00;;;14.33;100.00
77454;BME280;66538;53.150;18.160;2023-10-31T11:07:51;99205.24;;;14.31;100.00
77454;BME280;66538;53.150;18.160;2023-10-31T11:10:18;99202.81;;;14.30;100.00
77454;BME280;66538;53.150;18.160;2023-10-31T11:12:45;99204.21;;;14.32;100.00
77454;BME280;66538;53.150;18.160;2023-10-31T11:15:15;99205.99;;;14.34;100.00
77454;BME280;66538;53.150;18.160;2023-10-31T11:17:44;99206.34;;;14.35;100.00
77454;BME280;66538;53.150;18.160;2023-10-31T11:20:15;99209.89;;;14.36;100.00
77454;BME280;66538;53.150;18.160;2023-10-31T11:22:44;99216.52;;;14.34;100.00
77454;BME280;66538;53.150;18.160;2023-10-31T11:25:18;99218.17;;;14.34;100.00
77454;BME280;66538;53.150;18.160;2023-10-31T11:27:50;99229.11;;;14.33;100.00
77454;BME280;66538;53.150;18.160;2023-10-31T11:30:33;99240.89;;;14.33;100.00
77454;BME280;66538;53.150;18.160;2023-10-31T11:33:01;99254.73;;;14.32;100.00
77454;BME280;66538;53.150;18.160;2023-10-31T11:35:30;99262.20;;;14.29;100.00
77454;BME280;66538;53.150;18.160;2023-10-31T11:38:08;99267.72;;;14.31;100.00
77454;BME280;66538;53.150;18.160;2023-10-31T11:43:15;99286.99;;;14.27;100.00
77454;BME280;66538;53.150;18.160;2023-10-31T11:45:43;99297.14;;;14.26;100.00
77454;BME280;66538;53.150;18.160;2023-10-31T11:48:14;99306.05;;;14.23;100.00
77454;BME280;66538;53.150;18.160;2023-10-31T11:50:42;99307.98;;;14.20;100.00
77454;BME280;66538;53.150;18.160;2023-10-31T11:53:10;99299.17;;;14.19;100.00
77454;BME280;66538;53.150;18.160;2023-10-31T11:55:43;99312.89;;;14.19;100.00
77454;BME280;66538;53.150;18.160;2023-10-31T11:58:19;99326.33;;;14.20;100.00
77454;BME280;66538;53.150;18.160;2023-10-31T12:00:51;99328.08;;;14.18;100.00
77454;BME280;66538;53.150;18.160;2023-10-31T12:03:20;99336.06;;;14.17;100.00
77454;BME280;66538;53.150;18.160;2023-10-31T12:05:58;99337.33;;;14.19;100.00
77454;BME280;66538;53.150;18.160;2023-10-31T12:11:12;99346.18;;;14.20;100.00
77454;BME280;66538;53.150;18.160;2023-10-31T12:13:41;99349.45;;;14.19;100.00
77454;BME280;66538;53.150;18.160;2023-10-31T12:16:09;99355.09;;;14.15;100.00
77454;BME280;66538;53.150;18.160;2023-10-31T12:18:37;99349.55;;;14.12;100.00
77454;BME280;66538;53.150;18.160;2023-10-31T12:21:05;99349.90;;;14.09;100.00
77454;BME280;66538;53.150;18.160;2023-10-31T12:23:34;99338.93;;;14.06;100.00
77454;BME280;66538;53.150;18.160;2023-10-31T12:26:00;99334.40;;;14.04;100.00
77454;BME280;66538;53.150;18.160;2023-10-31T12:28:27;99332.73;;;14.02;100.00
77454;BME280;66538;53.150;18.160;2023-10-31T12:30:55;99330.75;;;13.99;100.00
77454;BME280;66538;53.150;18.160;2023-10-31T12:33:25;99327.06;;;14.02;100.00
77454;BME280;66538;53.150;18.160;2023-10-31T12:36:03;99326.60;;;14.04;100.00
77454;BME280;66538;53.150;18.160;2023-10-31T12:38:35;99324.65;;;14.11;100.00
77454;BME280;66538;53.150;18.160;2023-10-31T12:41:11;99326.13;;;14.16;100.00
77454;BME280;66538;53.150;18.160;2023-10-31T12:43:38;99323.80;;;14.15;100.00
77454;BME280;66538;53.150;18.160;2023-10-31T12:46:32;99323.50;;;14.13;100.00
77454;BME280;66538;53.150;18.160;2023-10-31T12:48:59;99325.52;;;14.10;100.00
77454;BME280;66538;53.150;18.160;2023-10-31T12:51:26;99334.67;;;14.09;100.00